createdAt,value
2022-11-10T00:04:30.776Z,63.55
2022-11-10T00:08:51.635Z,65.47
2022-11-10T00:13:12.113Z,59.17
2022-11-10T00:17:36.325Z,60.33
2022-11-10T00:21:56.923Z,60.28
2022-11-10T00:26:19.899Z,54.25
2022-11-10T00:30:43.393Z,58.38
2022-11-10T00:35:07.777Z,64.95
2022-11-10T00:39:28.238Z,64.05
2022-11-10T00:43:49.349Z,65.13
2022-11-10T00:48:09.767Z,59.53
2022-11-10T00:52:30.067Z,63.15
2022-11-10T00:56:50.900Z,54.60
2022-11-10T01:01:12.043Z,57.08
2022-11-10T01:05:35.378Z,61.58
2022-11-10T01:09:55.593Z,60.08
2022-11-10T01:14:15.616Z,58.25
2022-11-10T01:18:36.541Z,71.32
2022-11-10T01:22:56.937Z,60.03
2022-11-10T01:27:17.461Z,64.03
2022-11-10T01:31:38.164Z,60.28
2022-11-10T01:35:59.009Z,60.35
2022-11-10T01:40:19.850Z,70.00
2022-11-10T01:44:42.017Z,59.70
2022-11-10T01:49:04.194Z,86.60
2022-11-10T01:53:27.833Z,85.75
2022-11-10T01:57:48.839Z,85.32
2022-11-10T02:02:20.633Z,75.18
2022-11-10T02:06:43.211Z,76.43
2022-11-10T02:11:04.619Z,71.65
2022-11-10T02:15:25.205Z,60.78
2022-11-10T02:19:45.636Z,65.85
2022-11-10T02:24:05.738Z,65.82
2022-11-10T02:28:27.228Z,61.25
2022-11-10T02:32:47.215Z,66.68
2022-11-10T02:37:07.906Z,59.67
2022-11-10T02:41:28.145Z,63.25
2022-11-10T02:45:48.884Z,62.90
2022-11-10T02:50:09.374Z,63.03
2022-11-10T02:54:29.617Z,61.55
2022-11-10T02:58:49.674Z,65.13
2022-11-10T03:03:10.315Z,64.70
2022-11-10T03:07:30.430Z,61.03
2022-11-10T03:11:51.261Z,62.15
2022-11-10T03:16:11.262Z,56.85
2022-11-10T03:20:31.867Z,55.13
2022-11-10T03:24:51.962Z,64.88
2022-11-10T03:29:12.559Z,56.78
2022-11-10T03:33:32.981Z,64.47
2022-11-10T03:37:53.379Z,55.40
2022-11-10T03:42:13.487Z,59.25
2022-11-10T03:46:33.957Z,62.35
2022-11-10T03:50:54.288Z,60.28
2022-11-10T03:55:17.347Z,59.45
2022-11-10T03:59:37.675Z,58.80
2022-11-10T04:03:58.308Z,61.75
2022-11-10T04:08:37.076Z,64.63
2022-11-10T04:13:16.367Z,59.85
2022-11-10T04:17:37.027Z,58.93
2022-11-10T04:21:58.096Z,66.47
2022-11-10T04:26:29.817Z,67.18
2022-11-10T04:30:50.294Z,66.97
2022-11-10T04:35:10.417Z,67.85
2022-11-10T04:39:30.682Z,63.42
2022-11-10T04:43:51.195Z,62.45
2022-11-10T04:48:11.733Z,65.60
2022-11-10T04:52:31.828Z,64.97
2022-11-10T04:56:52.602Z,65.93
2022-11-10T05:01:14.574Z,65.57
2022-11-10T05:05:35.532Z,66.88
2022-11-10T05:09:56.012Z,75.53
2022-11-10T05:14:16.518Z,64.60
2022-11-10T05:18:37.278Z,59.97
2022-11-10T05:23:16.343Z,62.20
2022-11-10T05:27:36.669Z,65.15
2022-11-10T05:31:57.107Z,67.65
2022-11-10T05:36:17.286Z,70.53
2022-11-10T05:40:37.922Z,77.10
2022-11-10T05:44:57.761Z,76.95
2022-11-10T05:49:18.437Z,67.90
2022-11-10T05:53:38.434Z,74.13
2022-11-10T05:57:58.952Z,68.53
2022-11-10T06:02:19.133Z,73.07
2022-11-10T06:06:39.763Z,70.15
2022-11-10T06:10:59.790Z,67.60
2022-11-10T06:15:20.902Z,70.90
2022-11-10T06:19:41.034Z,72.28
2022-11-10T06:24:01.541Z,72.53
2022-11-10T06:28:21.709Z,68.82
2022-11-10T06:32:44.187Z,76.40
2022-11-10T06:37:04.240Z,68.18
2022-11-10T06:41:25.537Z,70.68
2022-11-10T06:45:45.978Z,65.45
2022-11-10T06:50:07.069Z,63.67
2022-11-10T06:54:27.298Z,68.18
2022-11-10T06:58:47.977Z,79.28
2022-11-10T07:03:12.787Z,83.90
2022-11-10T07:07:33.158Z,74.03
2022-11-10T07:11:53.134Z,69.05
2022-11-10T07:16:13.943Z,71.35
2022-11-10T07:20:35.964Z,66.78
2022-11-10T07:24:56.933Z,64.90
2022-11-10T07:29:17.122Z,63.72
2022-11-10T07:33:37.654Z,67.90
2022-11-10T07:38:01.254Z,77.22
2022-11-10T07:42:21.353Z,79.47
2022-11-10T07:46:41.494Z,66.07
2022-11-10T07:51:01.973Z,83.97
2022-11-10T07:55:22.618Z,67.70
2022-11-10T07:59:43.299Z,74.90
2022-11-10T08:04:03.897Z,80.75
2022-11-10T08:08:24.180Z,76.95
2022-11-10T08:12:44.688Z,71.38
2022-11-10T08:17:05.361Z,77.07
2022-11-10T08:21:26.019Z,72.63
2022-11-10T08:25:47.895Z,76.60
2022-11-10T08:30:08.295Z,72.75
2022-11-10T08:34:28.825Z,74.43
2022-11-10T08:38:48.883Z,94.13
2022-11-10T08:43:10.266Z,72.15
2022-11-10T08:47:30.555Z,74.75
2022-11-10T08:51:50.947Z,76.43
2022-11-10T08:56:11.076Z,70.25
2022-11-10T09:00:32.342Z,74.13
2022-11-10T09:04:53.583Z,61.78
2022-11-10T09:09:14.451Z,65.93
2022-11-10T09:13:35.209Z,62.72
2022-11-10T09:18:01.782Z,57.55
2022-11-10T09:22:22.490Z,57.63
2022-11-10T09:26:45.303Z,55.15
2022-11-10T09:31:05.931Z,60.00
2022-11-10T09:35:27.282Z,57.60
2022-11-10T09:39:47.549Z,54.85
2022-11-10T09:44:30.929Z,54.72
2022-11-10T09:48:56.314Z,57.47
2022-11-10T09:53:24.846Z,58.15
2022-11-10T09:57:49.095Z,55.63
2022-11-10T10:02:31.806Z,54.03
2022-11-10T10:07:11.498Z,52.30
2022-11-10T10:12:07.146Z,49.75
2022-11-10T10:16:36.353Z,50.10
2022-11-10T10:21:17.705Z,48.38
2022-11-10T10:25:40.856Z,46.92
2022-11-10T10:30:01.963Z,48.08
2022-11-10T10:34:27.364Z,48.20
2022-11-10T10:38:52.541Z,50.65
2022-11-10T10:43:12.796Z,50.05
2022-11-10T10:47:37.496Z,48.58
2022-11-10T10:52:18.182Z,47.40
2022-11-10T10:56:38.719Z,44.15
2022-11-10T11:01:21.361Z,45.35
2022-11-10T11:05:42.091Z,43.33
2022-11-10T11:10:02.296Z,41.20
2022-11-10T11:14:25.693Z,41.95
2022-11-10T11:18:46.030Z,38.80
2022-11-10T11:23:25.659Z,38.08
2022-11-10T11:27:58.136Z,36.03
2022-11-10T11:32:34.766Z,36.60
2022-11-10T11:37:12.050Z,31.52
2022-11-10T11:41:49.262Z,33.28
2022-11-10T11:46:21.297Z,33.83
2022-11-10T11:50:45.903Z,32.17
2022-11-10T11:55:53.934Z,32.80
2022-11-10T12:00:17.457Z,30.27
2022-11-10T12:05:03.022Z,29.63
2022-11-10T12:09:28.792Z,27.65
2022-11-10T12:14:49.322Z,28.58
2022-11-10T12:19:46.859Z,25.25
2022-11-10T12:24:19.070Z,27.25
2022-11-10T12:28:47.725Z,25.60
2022-11-10T12:33:26.919Z,22.42
2022-11-10T12:37:54.018Z,22.23
2022-11-10T12:42:19.806Z,22.65
2022-11-10T12:46:42.319Z,24.27
2022-11-10T12:51:13.743Z,22.90
2022-11-10T12:55:45.556Z,24.40
2022-11-10T13:00:27.447Z,23.50
2022-11-10T13:05:28.014Z,21.60
2022-11-10T13:09:48.633Z,23.03
2022-11-10T13:14:28.045Z,21.70
2022-11-10T13:18:53.431Z,20.38
2022-11-10T13:23:29.950Z,19.70
2022-11-10T13:27:52.143Z,19.63
2022-11-10T13:32:15.793Z,21.58
2022-11-10T13:36:43.279Z,19.98
2022-11-10T13:41:33.862Z,21.02
2022-11-10T13:46:02.873Z,21.05
2022-11-10T13:50:40.562Z,20.70
2022-11-10T13:55:31.566Z,22.83
2022-11-10T13:59:56.531Z,20.48
2022-11-10T14:04:35.621Z,21.45
2022-11-10T14:09:02.838Z,22.33
2022-11-10T14:13:32.055Z,22.75
2022-11-10T14:17:56.047Z,21.40
2022-11-10T14:22:31.891Z,22.98
2022-11-10T14:26:53.736Z,21.98
2022-11-10T14:31:23.558Z,22.02
2022-11-10T14:35:53.046Z,40.47
2022-11-10T14:44:37.805Z,50.22
2022-11-10T14:48:59.657Z,30.90
2022-11-10T14:53:39.164Z,30.40
2022-11-10T15:02:25.654Z,26.92
2022-11-10T15:06:48.945Z,48.22
2022-11-10T15:11:40.292Z,53.10
2022-11-10T15:16:22.250Z,58.63
2022-11-10T15:20:42.432Z,55.50
2022-11-10T15:25:15.648Z,52.38
2022-11-10T15:29:36.038Z,78.20
2022-11-10T15:33:59.458Z,79.53
2022-11-10T15:38:27.478Z,66.90
2022-11-10T15:43:08.286Z,72.67
2022-11-10T15:51:52.205Z,103.38
2022-11-10T15:56:18.464Z,55.42
2022-11-10T16:00:39.167Z,45.95
2022-11-10T16:05:00.293Z,55.22
2022-11-10T16:09:20.826Z,73.05
2022-11-10T16:13:41.383Z,54.15
2022-11-10T16:18:01.998Z,44.92
2022-11-10T16:22:22.373Z,46.17
2022-11-10T16:26:42.932Z,46.95
2022-11-10T16:31:03.354Z,50.00
2022-11-10T16:35:24.200Z,41.83
2022-11-10T16:39:44.424Z,36.33
2022-11-10T16:44:13.192Z,34.65
2022-11-10T16:48:36.104Z,30.23
2022-11-10T16:52:57.270Z,33.55
2022-11-10T16:57:17.698Z,23.00
2022-11-10T17:01:41.737Z,34.78
2022-11-10T17:06:02.832Z,25.15
2022-11-10T17:10:23.568Z,27.15
2022-11-10T17:14:43.861Z,28.63
2022-11-10T17:19:07.526Z,60.63
2022-11-10T17:23:28.137Z,29.48
2022-11-10T17:27:48.584Z,31.40
2022-11-10T17:32:08.831Z,28.52
2022-11-10T17:36:30.558Z,34.55
2022-11-10T17:40:51.956Z,34.80
2022-11-10T17:45:20.855Z,36.65
2022-11-10T17:49:41.155Z,48.40
2022-11-10T17:54:05.785Z,29.98
2022-11-10T17:58:26.344Z,43.00
2022-11-10T18:02:52.544Z,31.52
2022-11-10T18:07:15.385Z,37.83
2022-11-10T18:11:36.040Z,34.38
2022-11-10T18:15:59.765Z,38.88
2022-11-10T18:20:20.089Z,40.22
2022-11-10T18:24:40.238Z,32.00
2022-11-10T18:29:00.748Z,38.97
2022-11-10T18:33:21.607Z,56.97
2022-11-10T18:37:42.340Z,59.92
2022-11-10T18:42:02.848Z,56.58
2022-11-10T18:46:23.589Z,59.35
2022-11-10T18:50:44.126Z,87.38
2022-11-10T18:55:04.685Z,51.13
2022-11-10T18:59:24.997Z,59.70
2022-11-10T19:03:45.865Z,49.83
2022-11-10T19:08:08.061Z,54.08
2022-11-10T19:12:28.255Z,61.47
2022-11-10T19:16:48.853Z,55.42
2022-11-10T19:21:14.952Z,50.30
2022-11-10T19:25:35.191Z,65.55
2022-11-10T19:29:55.500Z,64.15
2022-11-10T19:34:18.831Z,52.20
2022-11-10T19:38:39.789Z,47.65
2022-11-10T19:43:00.209Z,158.63
2022-11-10T19:47:20.991Z,84.13
2022-11-10T19:51:41.073Z,94.70
2022-11-10T19:56:05.051Z,68.93
2022-11-10T20:00:25.864Z,70.68
2022-11-10T20:05:05.065Z,78.28
2022-11-10T20:09:25.319Z,51.30
2022-11-10T20:13:46.017Z,60.00
2022-11-10T20:18:07.137Z,50.40
2022-11-10T20:22:27.671Z,53.55
2022-11-10T20:26:49.805Z,43.92
2022-11-10T20:31:16.233Z,47.42
2022-11-10T20:35:41.396Z,45.55
2022-11-10T20:40:07.332Z,45.55
2022-11-10T20:44:39.781Z,38.38
2022-11-10T20:49:00.343Z,44.80
2022-11-10T20:53:21.219Z,42.13
2022-11-10T20:57:41.911Z,42.28
2022-11-10T21:02:02.896Z,39.90
2022-11-10T21:06:23.225Z,42.60
2022-11-10T21:10:50.117Z,46.20
2022-11-10T21:15:10.398Z,47.17
2022-11-10T21:19:35.058Z,57.97
2022-11-10T21:23:57.423Z,65.43
2022-11-10T21:28:18.327Z,58.33
2022-11-10T21:32:38.592Z,75.40
2022-11-10T21:36:59.077Z,70.35
2022-11-10T21:41:19.434Z,62.47
2022-11-10T21:45:40.153Z,58.17
2022-11-10T21:50:00.223Z,53.60
2022-11-10T21:54:20.973Z,46.53
2022-11-10T21:58:41.106Z,43.75
2022-11-10T22:03:03.786Z,43.65
2022-11-10T22:07:23.973Z,45.80
2022-11-10T22:12:03.260Z,38.63
2022-11-10T22:16:47.522Z,44.38
2022-11-10T22:21:08.652Z,43.83
2022-11-10T22:25:28.647Z,35.65
2022-11-10T22:29:49.260Z,40.42
2022-11-10T22:34:09.448Z,40.28
2022-11-10T22:38:37.586Z,38.25
2022-11-10T22:43:16.297Z,38.28
2022-11-10T22:47:55.637Z,50.17
2022-11-10T22:52:15.796Z,51.17
2022-11-10T22:56:36.616Z,55.92
2022-11-10T23:01:07.294Z,55.70
2022-11-10T23:05:28.006Z,54.45
2022-11-10T23:09:48.174Z,50.40
2022-11-10T23:14:10.314Z,50.85
2022-11-10T23:18:30.915Z,51.28
2022-11-10T23:22:51.354Z,40.03
2022-11-10T23:27:11.412Z,42.58
2022-11-10T23:31:32.025Z,35.58
2022-11-10T23:35:52.132Z,36.13
2022-11-10T23:40:12.920Z,33.47
2022-11-10T23:44:33.196Z,36.67
2022-11-10T23:48:54.011Z,33.40
2022-11-10T23:53:14.667Z,31.48
2022-11-10T23:57:35.527Z,33.17
